createdAt,value
2023-05-10T00:00:25.228Z,35.65
2023-05-10T00:02:57.668Z,34.83
2023-05-10T00:05:29.796Z,33.14
2023-05-10T00:08:02.083Z,33.70
2023-05-10T00:10:34.256Z,33.60
2023-05-10T00:13:06.734Z,32.78
2023-05-10T00:15:39.103Z,32.95
2023-05-10T00:18:11.321Z,33.10
2023-05-10T00:20:43.678Z,32.02
2023-05-10T00:23:15.805Z,32.92
2023-05-10T00:25:48.201Z,32.63
2023-05-10T00:28:20.150Z,32.75
2023-05-10T00:30:52.278Z,32.09
2023-05-10T00:33:24.449Z,32.42
2023-05-10T00:35:56.556Z,33.35
2023-05-10T00:38:28.647Z,32.97
2023-05-10T00:41:01.518Z,33.22
2023-05-10T00:43:35.200Z,33.28
2023-05-10T00:46:09.569Z,32.08
2023-05-10T00:48:42.990Z,32.42
2023-05-10T00:51:15.832Z,32.71
2023-05-10T00:53:52.608Z,32.45
2023-05-10T00:56:25.791Z,32.53
2023-05-10T00:58:58.367Z,31.81
2023-05-10T01:01:31.948Z,32.26
2023-05-10T01:04:04.633Z,32.74
2023-05-10T01:06:36.919Z,32.56
2023-05-10T01:09:09.243Z,33.09
2023-05-10T01:11:42.266Z,32.91
2023-05-10T01:14:14.358Z,33.14
2023-05-10T01:16:49.345Z,33.77
2023-05-10T01:19:27.033Z,33.38
2023-05-10T01:22:05.011Z,33.46
2023-05-10T01:24:42.752Z,33.16
2023-05-10T01:27:20.774Z,32.51
2023-05-10T01:30:13.600Z,32.59
2023-05-10T01:32:40.144Z,32.58
2023-05-10T01:35:30.116Z,32.99
2023-05-10T01:38:11.086Z,32.67
2023-05-10T01:40:52.037Z,33.12
2023-05-10T01:43:32.867Z,33.59
2023-05-10T01:46:13.940Z,33.28
2023-05-10T01:48:52.067Z,33.94
2023-05-10T01:51:28.009Z,33.80
2023-05-10T01:54:07.670Z,33.91
2023-05-10T01:56:42.399Z,33.93
2023-05-10T01:59:17.643Z,33.94
2023-05-10T02:01:50.896Z,34.46
2023-05-10T02:04:25.677Z,34.04
2023-05-10T02:06:59.117Z,34.61
2023-05-10T02:09:34.213Z,33.74
2023-05-10T02:12:08.374Z,33.74
2023-05-10T02:14:42.587Z,33.62
2023-05-10T02:17:15.654Z,33.73
2023-05-10T02:19:49.414Z,33.49
2023-05-10T02:22:23.389Z,33.64
2023-05-10T02:24:58.156Z,33.08
2023-05-10T02:27:31.580Z,32.88
2023-05-10T02:30:04.606Z,32.82
2023-05-10T02:32:37.691Z,32.70
2023-05-10T02:35:11.845Z,32.94
2023-05-10T02:37:45.701Z,32.87
2023-05-10T02:40:19.207Z,33.02
2023-05-10T02:42:54.474Z,33.17
2023-05-10T02:45:29.573Z,32.91
2023-05-10T02:48:02.472Z,33.24
2023-05-10T02:50:36.280Z,33.42
2023-05-10T02:53:17.640Z,33.13
2023-05-10T02:55:52.679Z,32.74
2023-05-10T02:58:25.055Z,32.61
2023-05-10T03:00:57.730Z,32.74
2023-05-10T03:03:30.026Z,32.64
2023-05-10T03:06:02.147Z,33.00
2023-05-10T03:08:34.685Z,33.00
2023-05-10T03:11:26.550Z,32.90
2023-05-10T03:14:22.446Z,32.90
2023-05-10T03:17:00.657Z,33.16
2023-05-10T03:19:36.196Z,33.23
2023-05-10T03:22:11.367Z,32.85
2023-05-10T03:24:44.162Z,32.68
2023-05-10T03:27:17.742Z,32.78
2023-05-10T03:29:50.977Z,32.97
2023-05-10T03:32:23.396Z,32.50
2023-05-10T03:34:56.121Z,32.67
2023-05-10T03:37:29.333Z,33.07
2023-05-10T03:40:01.371Z,32.37
2023-05-10T03:42:34.423Z,32.71
2023-05-10T03:45:07.171Z,32.33
2023-05-10T03:47:39.805Z,32.40
2023-05-10T03:50:11.987Z,32.62
2023-05-10T03:52:45.505Z,32.64
2023-05-10T03:55:18.285Z,31.99
2023-05-10T03:57:50.819Z,31.65
2023-05-10T04:00:23.899Z,31.41
2023-05-10T04:02:57.486Z,32.23
2023-05-10T04:05:30.264Z,31.66
2023-05-10T04:08:02.441Z,31.66
2023-05-10T04:10:35.430Z,31.62
2023-05-10T04:13:07.586Z,31.81
2023-05-10T04:15:39.571Z,31.63
2023-05-10T04:18:11.668Z,31.25
2023-05-10T04:20:44.168Z,30.80
2023-05-10T04:23:17.996Z,30.59
2023-05-10T04:25:50.165Z,30.62
2023-05-10T04:28:23.030Z,29.33
2023-05-10T04:30:55.495Z,29.86
2023-05-10T04:33:27.861Z,29.67
2023-05-10T04:36:00.256Z,29.87
2023-05-10T04:38:33.302Z,29.56
2023-05-10T04:41:09.721Z,29.16
2023-05-10T04:43:41.985Z,29.72
2023-05-10T04:46:14.259Z,28.99
2023-05-10T04:48:46.730Z,28.43
2023-05-10T04:51:19.874Z,28.50
2023-05-10T04:54:05.350Z,28.02
2023-05-10T04:56:26.691Z,27.83
2023-05-10T04:58:59.611Z,28.09
2023-05-10T05:01:32.358Z,27.51
2023-05-10T05:04:04.736Z,27.07
2023-05-10T05:06:37.234Z,26.84
2023-05-10T05:09:11.593Z,27.34
2023-05-10T05:11:43.588Z,27.00
2023-05-10T05:14:15.438Z,27.26
2023-05-10T05:16:47.614Z,27.18
2023-05-10T05:19:20.107Z,26.68
2023-05-10T05:21:52.672Z,26.18
2023-05-10T05:24:25.007Z,26.47
2023-05-10T05:26:57.193Z,26.31
2023-05-10T05:29:30.015Z,26.45
2023-05-10T05:32:03.100Z,25.96
2023-05-10T05:34:35.615Z,25.30
2023-05-10T05:37:07.786Z,25.74
2023-05-10T05:39:40.281Z,25.74
2023-05-10T05:42:13.400Z,24.91
2023-05-10T05:44:46.128Z,25.02
2023-05-10T05:47:18.589Z,24.54
2023-05-10T05:49:51.372Z,24.62
2023-05-10T05:52:24.316Z,24.98
2023-05-10T05:54:56.850Z,24.63
2023-05-10T05:57:29.480Z,24.28
2023-05-10T06:00:02.078Z,24.13
2023-05-10T06:02:35.858Z,24.51
2023-05-10T06:05:08.790Z,24.65
2023-05-10T06:07:42.737Z,24.09
2023-05-10T06:10:15.278Z,23.99
2023-05-10T06:12:49.186Z,24.00
2023-05-10T06:15:21.574Z,24.01
2023-05-10T06:17:53.801Z,23.55
2023-05-10T06:20:26.002Z,24.21
2023-05-10T06:22:58.751Z,23.73
2023-05-10T06:25:32.283Z,23.43
2023-05-10T06:28:04.853Z,23.46
2023-05-10T06:30:39.238Z,23.41
2023-05-10T06:33:11.170Z,23.42
2023-05-10T06:35:43.348Z,23.42
2023-05-10T06:38:16.284Z,23.42
2023-05-10T06:40:48.742Z,22.88
2023-05-10T06:43:21.956Z,22.59
2023-05-10T06:45:54.478Z,22.33
2023-05-10T06:48:26.921Z,22.84
2023-05-10T06:50:59.310Z,22.53
2023-05-10T06:53:31.925Z,22.30
2023-05-10T06:56:04.574Z,22.24
2023-05-10T06:58:37.588Z,23.29
2023-05-10T07:01:10.644Z,22.33
2023-05-10T07:03:43.066Z,21.87
2023-05-10T07:06:29.465Z,21.95
2023-05-10T07:08:49.146Z,21.90
2023-05-10T07:11:22.916Z,21.57
2023-05-10T07:13:55.205Z,20.96
2023-05-10T07:16:27.282Z,21.15
2023-05-10T07:19:00.185Z,21.24
2023-05-10T07:21:33.984Z,21.04
2023-05-10T07:24:07.307Z,20.76
2023-05-10T07:26:39.487Z,21.10
2023-05-10T07:29:12.498Z,20.81
2023-05-10T07:31:44.797Z,21.09
2023-05-10T07:34:17.455Z,21.25
2023-05-10T07:36:50.069Z,21.26
2023-05-10T07:39:27.662Z,21.10
2023-05-10T07:41:58.267Z,20.91
2023-05-10T07:44:30.948Z,21.29
2023-05-10T07:47:04.572Z,21.02
2023-05-10T07:49:37.357Z,20.63
2023-05-10T07:52:09.688Z,20.04
2023-05-10T07:54:41.820Z,21.62
2023-05-10T07:57:15.780Z,20.16
2023-05-10T07:59:48.666Z,20.32
2023-05-10T08:02:21.172Z,19.66
2023-05-10T08:04:54.053Z,19.66
2023-05-10T08:07:27.103Z,19.39
2023-05-10T08:09:59.561Z,19.43
2023-05-10T08:12:33.527Z,20.46
2023-05-10T08:15:06.239Z,19.18
2023-05-10T08:17:38.689Z,19.16
2023-05-10T08:20:13.376Z,19.03
2023-05-10T08:22:46.775Z,20.19
2023-05-10T08:25:19.725Z,20.50
2023-05-10T08:27:52.233Z,21.40
2023-05-10T08:30:25.026Z,21.23
2023-05-10T08:32:57.308Z,21.66
2023-05-10T08:35:29.656Z,21.67
2023-05-10T08:38:02.010Z,21.72
2023-05-10T08:40:34.450Z,22.07
2023-05-10T08:43:09.871Z,22.46
2023-05-10T08:45:44.744Z,22.49
2023-05-10T08:48:17.452Z,21.84
2023-05-10T08:50:51.178Z,22.03
2023-05-10T08:53:26.049Z,22.21
2023-05-10T08:55:58.792Z,22.20
2023-05-10T08:58:32.395Z,22.43
2023-05-10T09:01:07.896Z,22.41
2023-05-10T09:03:42.255Z,22.50
2023-05-10T09:06:16.729Z,22.50
2023-05-10T09:08:52.638Z,22.80
2023-05-10T09:11:26.118Z,22.21
2023-05-10T09:13:59.120Z,21.02
2023-05-10T09:16:31.948Z,19.69
2023-05-10T09:19:05.107Z,19.46
2023-05-10T09:21:41.500Z,19.36
2023-05-10T09:24:15.457Z,19.28
2023-05-10T09:26:52.328Z,18.57
2023-05-10T09:29:25.889Z,18.79
2023-05-10T09:31:58.948Z,19.29
2023-05-10T09:34:33.907Z,18.17
2023-05-10T09:37:06.321Z,17.91
2023-05-10T09:39:40.080Z,18.83
2023-05-10T09:42:12.847Z,17.77
2023-05-10T09:44:47.475Z,18.02
2023-05-10T09:47:23.020Z,17.89
2023-05-10T09:49:57.713Z,17.78
2023-05-10T09:52:29.226Z,17.54
2023-05-10T09:55:01.110Z,17.73
2023-05-10T09:57:35.221Z,17.39
2023-05-10T10:00:11.190Z,17.63
2023-05-10T10:02:47.322Z,17.25
2023-05-10T10:05:19.670Z,17.17
2023-05-10T10:07:53.775Z,17.43
2023-05-10T10:10:27.541Z,17.43
2023-05-10T10:13:01.157Z,17.39
2023-05-10T10:15:35.397Z,17.42
2023-05-10T10:18:08.795Z,17.21
2023-05-10T10:20:41.482Z,17.36
2023-05-10T10:23:16.649Z,17.18
2023-05-10T10:25:50.199Z,17.27
2023-05-10T10:28:29.123Z,17.29
2023-05-10T10:31:04.706Z,17.05
2023-05-10T10:33:47.517Z,17.57
2023-05-10T10:36:19.329Z,18.10
2023-05-10T10:39:02.521Z,16.93
2023-05-10T10:41:45.681Z,17.16
2023-05-10T10:44:36.589Z,17.07
2023-05-10T10:47:16.454Z,16.96
2023-05-10T10:49:53.819Z,17.24
2023-05-10T10:52:30.000Z,17.14
2023-05-10T10:55:26.583Z,17.07
2023-05-10T10:58:04.094Z,17.21
2023-05-10T11:00:38.578Z,17.23
2023-05-10T11:03:16.976Z,17.33
2023-05-10T11:05:54.688Z,17.07
2023-05-10T11:08:32.412Z,16.99
2023-05-10T11:11:11.486Z,17.14
2023-05-10T11:13:51.416Z,16.82
2023-05-10T11:16:26.625Z,16.90
2023-05-10T11:19:08.562Z,16.79
2023-05-10T11:21:49.837Z,16.76
2023-05-10T11:24:25.418Z,17.10
2023-05-10T11:26:59.010Z,17.19
2023-05-10T11:29:31.274Z,17.20
2023-05-10T11:32:05.151Z,17.14
2023-05-10T11:34:37.693Z,17.26
2023-05-10T11:37:10.188Z,17.65
2023-05-10T11:39:45.715Z,17.42
2023-05-10T11:42:19.405Z,17.21
2023-05-10T11:44:51.990Z,17.39
2023-05-10T11:47:24.798Z,17.76
2023-05-10T11:49:57.615Z,18.87
2023-05-10T11:52:31.138Z,17.70
2023-05-10T11:55:04.060Z,17.98
2023-05-10T11:57:39.055Z,18.64
2023-05-10T12:00:12.058Z,17.67
2023-05-10T12:02:43.917Z,18.15
2023-05-10T12:05:16.475Z,17.80
2023-05-10T12:07:48.681Z,18.02
2023-05-10T12:10:23.872Z,17.59
2023-05-10T12:12:56.375Z,17.92
2023-05-10T12:15:30.180Z,17.64
2023-05-10T12:18:04.243Z,17.94
2023-05-10T12:20:36.195Z,18.16
2023-05-10T12:23:10.157Z,18.01
2023-05-10T12:25:42.807Z,18.14
2023-05-10T12:28:15.034Z,17.88
2023-05-10T12:30:47.412Z,17.81
2023-05-10T12:33:20.629Z,17.96
2023-05-10T12:35:55.426Z,18.38
2023-05-10T12:38:28.228Z,18.73
2023-05-10T12:41:02.281Z,18.77
2023-05-10T12:43:35.337Z,19.48
2023-05-10T12:46:13.719Z,19.97
2023-05-10T12:48:49.195Z,20.39
2023-05-10T12:51:23.716Z,19.89
2023-05-10T12:53:56.548Z,20.34
2023-05-10T12:56:29.349Z,20.57
2023-05-10T12:59:01.753Z,20.29
2023-05-10T13:01:33.961Z,20.04
2023-05-10T13:04:06.593Z,20.10
2023-05-10T13:06:38.886Z,20.22
2023-05-10T13:09:11.406Z,19.85
2023-05-10T13:11:43.879Z,19.96
2023-05-10T13:14:16.156Z,20.58
2023-05-10T13:16:48.720Z,20.37
2023-05-10T13:19:21.361Z,20.49
2023-05-10T13:21:54.449Z,20.53
2023-05-10T13:24:26.656Z,20.21
2023-05-10T13:26:58.900Z,20.32
2023-05-10T13:29:31.195Z,20.27
2023-05-10T13:32:03.569Z,20.09
2023-05-10T13:34:36.762Z,20.22
2023-05-10T13:37:09.250Z,20.45
2023-05-10T13:39:41.941Z,20.27
2023-05-10T13:42:14.231Z,20.32
2023-05-10T13:44:46.468Z,20.00
2023-05-10T13:47:19.074Z,20.13
2023-05-10T13:49:51.113Z,20.34
2023-05-10T13:52:23.398Z,20.51
2023-05-10T13:54:57.344Z,20.39
2023-05-10T13:57:30.115Z,19.88
2023-05-10T14:00:02.218Z,19.62
2023-05-10T14:02:36.662Z,19.97
2023-05-10T14:05:09.261Z,20.21
2023-05-10T14:07:41.429Z,20.57
2023-05-10T14:10:13.808Z,20.44
2023-05-10T14:12:45.994Z,20.40
2023-05-10T14:15:18.499Z,20.71
2023-05-10T14:17:51.348Z,20.91
2023-05-10T14:20:23.898Z,20.54
2023-05-10T14:22:56.435Z,20.95
2023-05-10T14:25:29.449Z,20.92
2023-05-10T14:28:01.996Z,20.98
2023-05-10T14:30:35.391Z,21.05
2023-05-10T14:33:09.049Z,21.52
2023-05-10T14:35:41.693Z,21.26
2023-05-10T14:38:14.367Z,21.44
2023-05-10T14:40:46.529Z,21.52
2023-05-10T14:43:18.979Z,21.72
2023-05-10T14:45:51.062Z,22.09
2023-05-10T14:48:23.356Z,21.96
2023-05-10T14:50:55.883Z,22.16
2023-05-10T14:53:28.411Z,22.72
2023-05-10T14:56:02.340Z,22.21
2023-05-10T14:58:34.580Z,21.92
2023-05-10T15:01:07.063Z,22.18
2023-05-10T15:03:39.919Z,22.23
2023-05-10T15:06:12.798Z,22.50
2023-05-10T15:08:45.218Z,22.56
2023-05-10T15:11:17.545Z,22.48
2023-05-10T15:13:49.625Z,22.90
2023-05-10T15:16:22.047Z,23.09
2023-05-10T15:18:54.448Z,22.73
2023-05-10T15:21:26.531Z,23.13
2023-05-10T15:23:59.105Z,23.43
2023-05-10T15:26:31.392Z,22.92
2023-05-10T15:29:03.701Z,22.92
2023-05-10T15:31:37.467Z,23.09
2023-05-10T15:34:10.215Z,23.12
2023-05-10T15:36:42.673Z,23.07
2023-05-10T15:39:14.740Z,23.51
2023-05-10T15:41:48.450Z,23.57
2023-05-10T15:44:20.845Z,23.67
2023-05-10T15:46:53.214Z,23.55
2023-05-10T15:49:25.736Z,24.02
2023-05-10T15:51:58.329Z,24.21
2023-05-10T15:54:30.784Z,24.06
2023-05-10T15:57:02.933Z,24.42
2023-05-10T15:59:36.840Z,24.71
2023-05-10T16:02:12.397Z,24.87
2023-05-10T16:04:44.860Z,24.61
2023-05-10T16:07:17.355Z,24.39
2023-05-10T16:09:49.774Z,24.68
2023-05-10T16:12:22.044Z,25.08
2023-05-10T16:14:54.320Z,25.09
2023-05-10T16:17:26.871Z,25.17
2023-05-10T16:19:59.235Z,24.95
2023-05-10T16:22:33.120Z,25.30
2023-05-10T16:25:05.586Z,25.62
2023-05-10T16:27:38.435Z,26.06
2023-05-10T16:30:11.303Z,26.29
2023-05-10T16:32:43.534Z,26.52
2023-05-10T16:35:16.230Z,26.89
2023-05-10T16:37:48.508Z,26.95
2023-05-10T16:40:20.855Z,27.02
2023-05-10T16:42:53.036Z,27.53
2023-05-10T16:45:25.885Z,28.39
2023-05-10T16:47:58.239Z,28.40
2023-05-10T16:50:30.441Z,28.14
2023-05-10T16:53:03.251Z,27.93
2023-05-10T16:55:35.538Z,28.00
2023-05-10T16:58:07.605Z,28.41
2023-05-10T17:00:39.915Z,28.46
2023-05-10T17:03:12.837Z,28.43
2023-05-10T17:05:45.331Z,29.25
2023-05-10T17:08:17.746Z,29.19
2023-05-10T17:10:49.985Z,28.64
2023-05-10T17:13:22.358Z,29.43
2023-05-10T17:15:54.874Z,29.30
2023-05-10T17:18:28.273Z,29.24
2023-05-10T17:21:00.410Z,28.00
2023-05-10T17:23:33.022Z,29.87
2023-05-10T17:26:09.964Z,28.97
2023-05-10T17:28:43.500Z,29.19
2023-05-10T17:31:15.926Z,29.84
2023-05-10T17:33:47.945Z,28.86
2023-05-10T17:36:20.805Z,29.27
2023-05-10T17:38:53.198Z,29.72
2023-05-10T17:41:25.302Z,30.06
2023-05-10T17:43:57.272Z,30.63
2023-05-10T17:46:29.567Z,29.94
2023-05-10T17:49:01.723Z,29.14
2023-05-10T17:51:33.863Z,29.63
2023-05-10T17:54:06.495Z,28.75
2023-05-10T17:56:38.982Z,28.73
2023-05-10T17:59:11.264Z,29.11
2023-05-10T18:01:43.475Z,28.86
2023-05-10T18:04:15.537Z,29.32
2023-05-10T18:06:48.271Z,30.42
2023-05-10T18:09:21.451Z,30.74
2023-05-10T18:11:53.846Z,30.21
2023-05-10T18:14:38.947Z,29.69
2023-05-10T18:17:01.455Z,30.73
2023-05-10T18:19:33.847Z,31.69
2023-05-10T18:22:08.866Z,31.41
2023-05-10T18:24:42.529Z,29.79
2023-05-10T18:27:13.815Z,30.23
2023-05-10T18:29:46.725Z,29.64
2023-05-10T18:32:18.874Z,32.51
2023-05-10T18:34:51.861Z,32.13
2023-05-10T18:37:25.186Z,31.92
2023-05-10T18:39:57.811Z,31.21
2023-05-10T18:42:30.000Z,30.67
2023-05-10T18:45:02.168Z,30.99
2023-05-10T18:47:34.998Z,30.99
2023-05-10T18:50:07.818Z,31.63
2023-05-10T18:52:39.900Z,31.76
2023-05-10T18:55:12.132Z,32.55
2023-05-10T18:57:45.274Z,32.77
2023-05-10T19:00:19.463Z,32.68
2023-05-10T19:02:51.572Z,32.90
2023-05-10T19:05:26.260Z,33.08
2023-05-10T19:07:58.625Z,33.27
2023-05-10T19:10:30.915Z,33.35
2023-05-10T19:13:03.253Z,33.95
2023-05-10T19:15:35.542Z,33.95
2023-05-10T19:18:09.270Z,33.78
2023-05-10T19:20:42.564Z,33.73
2023-05-10T19:23:15.647Z,33.63
2023-05-10T19:25:48.281Z,33.71
2023-05-10T19:28:20.841Z,34.17
2023-05-10T19:30:53.017Z,34.50
2023-05-10T19:33:25.395Z,34.61
2023-05-10T19:35:58.218Z,34.37
2023-05-10T19:38:31.012Z,31.81
2023-05-10T19:41:03.336Z,32.76
2023-05-10T19:43:38.130Z,32.79
2023-05-10T19:46:10.680Z,33.36
2023-05-10T19:48:42.918Z,33.36
2023-05-10T19:51:15.550Z,33.40
2023-05-10T19:53:48.325Z,33.40
2023-05-10T19:56:21.990Z,33.08
2023-05-10T19:58:54.281Z,32.79
2023-05-10T20:01:26.965Z,32.20
2023-05-10T20:03:59.477Z,32.70
2023-05-10T20:06:33.423Z,32.70
2023-05-10T20:09:05.868Z,33.19
2023-05-10T20:11:38.542Z,33.35
2023-05-10T20:14:10.958Z,33.94
2023-05-10T20:16:43.324Z,33.59
2023-05-10T20:19:15.753Z,33.76
2023-05-10T20:21:48.015Z,34.62
2023-05-10T20:24:20.375Z,35.15
2023-05-10T20:26:52.640Z,34.76
2023-05-10T20:29:24.895Z,34.51
2023-05-10T20:31:57.018Z,33.40
2023-05-10T20:34:29.184Z,34.09
2023-05-10T20:37:01.158Z,34.67
2023-05-10T20:39:33.351Z,34.40
2023-05-10T20:42:05.526Z,34.81
2023-05-10T20:44:37.740Z,34.81
2023-05-10T20:47:10.243Z,34.84
2023-05-10T20:49:42.844Z,34.95
2023-05-10T20:52:15.140Z,34.95
2023-05-10T20:54:47.553Z,34.76
2023-05-10T20:57:19.642Z,34.06
2023-05-10T20:59:52.089Z,34.39
2023-05-10T21:02:24.645Z,35.44
2023-05-10T21:04:58.083Z,35.40
2023-05-10T21:07:32.003Z,35.40
2023-05-10T21:10:04.081Z,34.97
2023-05-10T21:12:36.674Z,36.09
2023-05-10T21:15:09.788Z,36.53
2023-05-10T21:17:42.364Z,35.36
2023-05-10T21:20:15.245Z,36.45
2023-05-10T21:22:47.623Z,36.45
2023-05-10T21:25:21.801Z,36.39
2023-05-10T21:27:54.397Z,36.93
2023-05-10T21:30:26.969Z,37.23
2023-05-10T21:33:00.146Z,37.79
2023-05-10T21:35:32.415Z,37.79
2023-05-10T21:38:04.547Z,38.04
2023-05-10T21:40:37.410Z,38.75
2023-05-10T21:43:11.405Z,38.75
2023-05-10T21:45:43.679Z,39.35
2023-05-10T21:48:18.086Z,38.84
2023-05-10T21:50:50.332Z,38.89
2023-05-10T21:53:22.788Z,38.86
2023-05-10T21:55:58.604Z,38.72
2023-05-10T21:58:31.214Z,38.17
2023-05-10T22:01:04.180Z,39.01
2023-05-10T22:03:36.507Z,39.17
2023-05-10T22:06:08.863Z,39.17
2023-05-10T22:08:41.727Z,39.27
2023-05-10T22:11:14.183Z,39.19
2023-05-10T22:13:46.418Z,38.10
2023-05-10T22:16:18.781Z,38.16
2023-05-10T22:18:51.690Z,37.81
2023-05-10T22:21:24.569Z,38.25
2023-05-10T22:23:57.036Z,37.87
2023-05-10T22:26:29.248Z,38.04
2023-05-10T22:29:02.023Z,38.00
2023-05-10T22:31:34.522Z,39.19
2023-05-10T22:34:06.828Z,38.23
2023-05-10T22:36:39.033Z,38.25
2023-05-10T22:39:11.807Z,38.59
2023-05-10T22:41:44.370Z,39.05
2023-05-10T22:44:16.544Z,38.30
2023-05-10T22:46:48.707Z,38.08
2023-05-10T22:49:21.010Z,38.07
2023-05-10T22:51:53.312Z,38.21
2023-05-10T22:54:25.604Z,39.15
2023-05-10T22:56:58.135Z,38.98
2023-05-10T22:59:30.412Z,38.60
2023-05-10T23:02:02.926Z,39.11
2023-05-10T23:04:35.647Z,39.16
2023-05-10T23:07:08.037Z,39.83
2023-05-10T23:09:43.829Z,39.14
2023-05-10T23:12:16.026Z,38.76
2023-05-10T23:14:48.461Z,38.70
2023-05-10T23:17:20.758Z,38.85
2023-05-10T23:19:53.150Z,38.85
2023-05-10T23:22:25.682Z,38.60
2023-05-10T23:24:57.954Z,39.00
2023-05-10T23:27:33.197Z,39.24
2023-05-10T23:30:05.875Z,39.23
2023-05-10T23:32:38.212Z,39.12
2023-05-10T23:35:11.024Z,38.72
2023-05-10T23:37:43.126Z,39.19
2023-05-10T23:40:15.658Z,39.49
2023-05-10T23:42:48.006Z,39.31
2023-05-10T23:45:20.616Z,39.83
2023-05-10T23:47:52.943Z,39.66
2023-05-10T23:50:25.264Z,39.71
2023-05-10T23:52:57.416Z,40.75
2023-05-10T23:55:29.694Z,40.27
2023-05-10T23:58:01.829Z,40.97
